Time;durP1;ratioP1;P1;durP2;ratioP2;P2;SDS_P1;SDS_P2;PMS_P1;PMS_P2;Temp;Humidity;BMP_temperature;BMP_pressure;BME280_temperature;BME280_humidity;BME280_pressure;Samples;Min_cycle;Max_cycle;Signal;HPM_P1;HPM_P2
2024/01/12 00:00:10;;;;;;;19.27;9.07;;;;;;;-2.06;100.00;102416.25;5035686;28;20218;-73
2024/01/12 00:02:39;;;;;;;22.80;9.27;;;;;;;-2.07;100.00;102415.44;5038952;28;20199;-73
2024/01/12 00:05:07;;;;;;;24.53;9.63;;;;;;;-2.08;100.00;102413.06;5028114;28;20227;-73
2024/01/12 00:07:34;;;;;;;19.83;9.77;;;;;;;-2.08;100.00;102407.91;5030555;28;20222;-73
2024/01/12 00:10:01;;;;;;;24.57;9.20;;;;;;;-2.08;100.00;102413.06;5031252;28;20219;-73
2024/01/12 00:12:27;;;;;;;23.53;8.67;;;;;;;-2.07;100.00;102418.03;5030843;28;20204;-73
2024/01/12 00:14:53;;;;;;;19.77;8.60;;;;;;;-2.06;100.00;102411.88;5030851;28;20219;-73
2024/01/12 00:17:20;;;;;;;22.73;8.97;;;;;;;-2.07;100.00;102405.09;5028038;28;20200;-73
2024/01/12 00:19:46;;;;;;;23.40;9.63;;;;;;;-2.06;100.00;102409.28;5030027;28;20217;-73
2024/01/12 00:22:13;;;;;;;27.57;9.90;;;;;;;-2.05;100.00;102410.06;5030161;28;20887;-73
2024/01/12 00:24:40;;;;;;;22.93;9.23;;;;;;;-2.04;100.00;102406.50;5031096;28;20226;-73
2024/01/12 00:27:07;;;;;;;30.23;10.17;;;;;;;-2.04;100.00;102401.31;5032926;28;20933;-73
2024/01/12 00:29:33;;;;;;;24.83;10.17;;;;;;;-2.04;100.00;102398.72;5033883;28;20717;-73
2024/01/12 00:31:59;;;;;;;21.53;9.40;;;;;;;-2.03;100.00;102408.09;5036080;28;20199;-73
2024/01/12 00:34:26;;;;;;;27.60;9.57;;;;;;;-2.02;100.00;102412.28;5032168;28;20239;-73
2024/01/12 00:36:53;;;;;;;21.20;8.60;;;;;;;-2.02;100.00;102407.88;5036043;28;21029;-73
2024/01/12 00:39:20;;;;;;;19.63;8.33;;;;;;;-2.02;100.00;102405.28;5034754;28;21452;-73
2024/01/12 00:41:50;;;;;;;27.97;9.57;;;;;;;-2.01;100.00;102404.31;5034534;28;20265;-73
2024/01/12 00:44:18;;;;;;;18.23;9.03;;;;;;;-2.00;100.00;102397.34;5033419;28;20227;-73
2024/01/12 00:46:44;;;;;;;21.47;8.33;;;;;;;-1.99;100.00;102401.50;5032281;28;20290;-73
2024/01/12 00:49:10;;;;;;;25.33;9.63;;;;;;;-1.98;100.00;102400.53;5037272;28;20209;-71
2024/01/12 00:51:37;;;;;;;20.40;8.67;;;;;;;-1.97;100.00;102400.31;5036406;28;20222;-73
2024/01/12 00:54:05;;;;;;;27.43;8.80;;;;;;;-1.96;100.00;102403.72;5036070;28;20231;-73
2024/01/12 00:56:31;;;;;;;24.93;10.23;;;;;;;-1.96;100.00;102396.75;5036236;28;20208;-73
2024/01/12 00:58:59;;;;;;;19.70;8.43;;;;;;;-1.95;100.00;102400.13;5036193;28;20207;-72
2024/01/12 01:01:25;;;;;;;25.83;9.67;;;;;;;-1.93;100.00;102403.34;5033745;28;21757;-72
2024/01/12 01:03:51;;;;;;;19.90;8.30;;;;;;;-1.92;100.00;102415.28;5030167;28;20215;-73
2024/01/12 01:06:18;;;;;;;25.27;9.43;;;;;;;-1.93;100.00;102422.22;5028135;28;20199;-72
2024/01/12 01:08:45;;;;;;;24.57;8.93;;;;;;;-1.91;100.00;102420.25;5033300;28;20203;-73
2024/01/12 01:11:12;;;;;;;24.63;8.43;;;;;;;-1.90;100.00;102410.69;5024452;28;20265;-72
2024/01/12 01:13:38;;;;;;;22.13;9.37;;;;;;;-1.90;100.00;102424.44;5029399;28;20210;-74
2024/01/12 01:16:06;;;;;;;20.73;9.27;;;;;;;-1.89;100.00;102431.19;5031247;28;20200;-72
2024/01/12 01:18:32;;;;;;;24.80;9.73;;;;;;;-1.87;100.00;102428.41;5036094;28;20203;-74
2024/01/12 01:20:59;;;;;;;20.77;8.90;;;;;;;-1.86;100.00;102430.00;5031430;28;20196;-74
2024/01/12 01:23:25;;;;;;;18.57;8.73;;;;;;;-1.84;100.00;102422.81;5035138;28;20607;-72
2024/01/12 01:25:53;;;;;;;24.33;10.10;;;;;;;-1.84;100.00;102431.41;5032758;28;20238;-73
2024/01/12 01:28:20;;;;;;;25.40;9.80;;;;;;;-1.83;100.00;102427.81;5033559;28;20866;-72
2024/01/12 01:30:47;;;;;;;20.67;9.53;;;;;;;-1.81;100.00;102432.81;5037489;28;20231;-73
2024/01/12 01:33:15;;;;;;;22.00;8.80;;;;;;;-1.80;100.00;102431.78;5029273;28;20207;-73
2024/01/12 01:35:41;;;;;;;22.07;9.10;;;;;;;-1.79;100.00;102423.84;5031768;28;20722;-73
2024/01/12 01:38:07;;;;;;;22.80;9.17;;;;;;;-1.80;100.00;102427.44;5031786;28;20208;-75
2024/01/12 01:40:33;;;;;;;26.43;9.10;;;;;;;-1.77;100.00;102434.78;5037017;28;20206;-73
2024/01/12 01:43:07;;;;;;;25.47;9.93;;;;;;;-1.76;100.00;102428.59;5035887;28;20247;-73
2024/01/12 01:45:36;;;;;;;25.27;10.23;;;;;;;-1.75;100.00;102427.63;5035465;28;20230;-72
2024/01/12 01:48:02;;;;;;;20.27;8.97;;;;;;;-1.74;100.00;102418.84;5030167;28;20219;-72
2024/01/12 01:50:30;;;;;;;22.07;9.70;;;;;;;-1.73;100.00;102417.84;5038281;28;20262;-72
2024/01/12 01:52:57;;;;;;;22.70;9.40;;;;;;;-1.72;100.00;102418.66;5032374;28;20793;-72
2024/01/12 01:55:24;;;;;;;20.80;9.10;;;;;;;-1.70;100.00;102421.84;5034094;28;20230;-72
2024/01/12 01:57:51;;;;;;;25.87;9.77;;;;;;;-1.69;100.00;102423.44;5034558;28;20200;-72
2024/01/12 02:00:18;;;;;;;21.13;9.13;;;;;;;-1.69;100.00;102424.25;5033125;28;20681;-72
2024/01/12 02:02:44;;;;;;;24.10;9.53;;;;;;;-1.67;100.00;102418.88;5030979;28;20204;-72
2024/01/12 02:05:12;;;;;;;24.23;9.80;;;;;;;-1.65;100.00;102412.50;5027006;28;20690;-72
2024/01/12 02:07:40;;;;;;;22.03;9.03;;;;;;;-1.64;100.00;102419.25;5032142;28;20754;-72
2024/01/12 02:10:08;;;;;;;24.13;9.47;;;;;;;-1.63;100.00;102422.63;5029580;28;20250;-72
2024/01/12 02:12:34;;;;;;;27.67;10.53;;;;;;;-1.63;100.00;102417.44;5033608;28;20222;-72
2024/01/12 02:15:01;;;;;;;28.23;10.20;;;;;;;-1.62;100.00;102416.47;5030603;28;20599;-72
2024/01/12 02:17:28;;;;;;;26.87;10.40;;;;;;;-1.60;100.00;102411.88;5028683;28;21136;-72
2024/01/12 02:19:58;;;;;;;25.03;9.53;;;;;;;-1.60;100.00;102409.28;5036906;28;20215;-72
2024/01/12 02:22:25;;;;;;;23.17;9.93;;;;;;;-1.58;100.00;102412.47;5032893;28;20681;-72
2024/01/12 02:24:52;;;;;;;29.47;10.43;;;;;;;-1.59;100.00;102406.50;5035035;28;20231;-72
2024/01/12 02:27:19;;;;;;;24.03;9.47;;;;;;;-1.58;100.00;102399.50;5033687;28;20195;-72
2024/01/12 02:29:48;;;;;;;26.03;9.67;;;;;;;-1.57;100.00;102411.50;5034213;28;20210;-72
2024/01/12 02:32:14;;;;;;;32.23;9.63;;;;;;;-1.57;100.00;102414.84;5028787;28;20220;-72
2024/01/12 02:34:40;;;;;;;32.40;11.87;;;;;;;-1.56;100.00;102408.66;5028516;28;20231;-72
2024/01/12 02:37:07;;;;;;;26.43;9.50;;;;;;;-1.55;100.00;102406.91;5030413;28;20199;-72
2024/01/12 02:39:34;;;;;;;26.57;9.77;;;;;;;-1.54;100.00;102393.75;5031880;28;20204;-72
2024/01/12 02:42:01;;;;;;;24.97;9.37;;;;;;;-1.53;100.00;102389.34;5037314;28;20649;-72
2024/01/12 02:44:27;;;;;;;26.83;9.07;;;;;;;-1.51;100.00;102395.13;5035749;28;20606;-72
2024/01/12 02:46:53;;;;;;;26.90;10.87;;;;;;;-1.52;100.00;102383.97;5028683;28;20206;-72
2024/01/12 02:49:20;;;;;;;26.73;10.20;;;;;;;-1.52;100.00;102381.38;5034960;28;20681;-72
2024/01/12 02:51:46;;;;;;;23.27;10.10;;;;;;;-1.50;100.00;102383.78;5031987;28;20729;-72
2024/01/12 02:54:13;;;;;;;25.30;9.37;;;;;;;-1.49;100.00;102393.94;5029943;28;20559;-72
2024/01/12 02:56:40;;;;;;;27.60;10.13;;;;;;;-1.48;100.00;102398.91;5035083;28;20208;-72
2024/01/12 02:59:07;;;;;;;24.93;10.20;;;;;;;-1.47;100.00;102402.28;5030841;28;20570;-72
2024/01/12 03:01:34;;;;;;;23.57;9.70;;;;;;;-1.47;100.00;102399.69;5028086;28;20205;-72
2024/01/12 03:04:01;;;;;;;27.73;9.80;;;;;;;-1.45;100.00;102402.09;5034814;28;20301;-72
2024/01/12 03:06:27;;;;;;;24.57;9.90;;;;;;;-1.43;100.00;102406.06;5031793;28;20230;-72
2024/01/12 03:08:53;;;;;;;25.73;9.60;;;;;;;-1.43;100.00;102410.44;5035008;28;20218;-72
2024/01/12 03:11:20;;;;;;;23.20;9.93;;;;;;;-1.41;100.00;102411.06;5030632;28;20581;-72
2024/01/12 03:13:47;;;;;;;27.20;10.27;;;;;;;-1.40;100.00;102404.88;5028717;28;20257;-72
2024/01/12 03:16:20;;;;;;;32.23;10.03;;;;;;;-1.39;100.00;102409.06;5031106;28;20207;-71
2024/01/12 03:18:48;;;;;;;29.40;10.20;;;;;;;-1.39;100.00;102396.91;5031342;28;20199;-72
2024/01/12 03:21:14;;;;;;;25.40;10.07;;;;;;;-1.38;100.00;102412.22;5031326;28;20218;-72
2024/01/12 03:23:41;;;;;;;30.27;9.90;;;;;;;-1.36;100.00;102419.03;5032836;28;20214;-72
2024/01/12 03:26:07;;;;;;;29.03;10.73;;;;;;;-1.35;100.00;102418.03;5031382;28;20211;-72
2024/01/12 03:28:34;;;;;;;30.30;10.87;;;;;;;-1.35;100.00;102416.22;5036595;28;20211;-72
2024/01/12 03:31:02;;;;;;;31.47;10.40;;;;;;;-1.33;100.00;102411.66;5033015;28;20211;-72
2024/01/12 03:33:29;;;;;;;27.90;10.20;;;;;;;-1.33;100.00;102400.47;5030649;28;20226;-72
2024/01/12 03:35:55;;;;;;;33.60;11.87;;;;;;;-1.32;100.00;102400.28;5032191;28;20231;-72
2024/01/12 03:38:21;;;;;;;31.87;11.07;;;;;;;-1.30;100.00;102389.72;5029708;28;20215;-72
2024/01/12 03:40:48;;;;;;;33.60;10.93;;;;;;;-1.30;100.00;102394.91;5035605;28;20195;-72
2024/01/12 03:43:14;;;;;;;30.43;10.33;;;;;;;-1.28;100.00;102393.69;5029524;28;20214;-72
2024/01/12 03:45:40;;;;;;;27.67;9.83;;;;;;;-1.27;100.00;102389.28;5034117;28;20231;-72
2024/01/12 03:48:08;;;;;;;31.07;10.37;;;;;;;-1.27;100.00;102384.91;5033233;28;20547;-72
2024/01/12 03:50:35;;;;;;;31.87;10.47;;;;;;;-1.26;100.00;102386.50;5030726;28;20217;-72
2024/01/12 03:53:01;;;;;;;30.10;10.87;;;;;;;-1.25;100.00;102388.09;5031692;28;20199;-72
2024/01/12 03:55:28;;;;;;;27.17;10.47;;;;;;;-1.24;100.00;102394.88;5033767;28;20223;-72
2024/01/12 03:57:54;;;;;;;35.70;10.73;;;;;;;-1.23;100.00;102386.88;5027347;28;20669;-72
2024/01/12 04:00:21;;;;;;;33.47;11.40;;;;;;;-1.22;100.00;102400.66;5032660;28;20218;-72
2024/01/12 04:02:47;;;;;;;33.40;11.37;;;;;;;-1.20;100.00;102388.28;5031542;28;20208;-72
2024/01/12 04:05:15;;;;;;;32.83;12.00;;;;;;;-1.19;100.00;102389.09;5026138;28;20232;-72
2024/01/12 04:07:41;;;;;;;36.83;11.13;;;;;;;-1.19;100.00;102400.22;5028321;28;20204;-72
2024/01/12 04:10:08;;;;;;;36.27;11.60;;;;;;;-1.17;100.00;102395.66;5025357;28;20200;-72
2024/01/12 04:12:34;;;;;;;35.07;11.83;;;;;;;-1.15;100.00;102403.22;5025457;28;20721;-72
2024/01/12 04:15:01;;;;;;;37.13;11.10;;;;;;;-1.15;100.00;102393.66;5027087;28;20242;-72
2024/01/12 04:17:27;;;;;;;35.37;10.93;;;;;;;-1.15;100.00;102388.47;5024957;28;20204;-73
2024/01/12 04:19:53;;;;;;;33.93;10.50;;;;;;;-1.14;100.00;102394.44;5026095;28;20218;-72
2024/01/12 04:22:21;;;;;;;32.63;10.70;;;;;;;-1.13;100.00;102380.47;5027846;28;20222;-72
2024/01/12 04:24:47;;;;;;;36.00;10.67;;;;;;;-1.13;100.00;102380.47;5025028;28;20233;-72
2024/01/12 04:27:14;;;;;;;32.60;11.10;;;;;;;-1.12;100.00;102381.06;5027376;28;20681;-72
2024/01/12 04:29:40;;;;;;;30.77;10.07;;;;;;;-1.12;100.00;102383.66;5025523;28;20195;-73
2024/01/12 04:32:06;;;;;;;42.93;11.30;;;;;;;-1.10;100.00;102374.91;5026247;28;20621;-72
2024/01/12 04:34:35;;;;;;;39.37;11.47;;;;;;;-1.12;100.00;102365.50;5026350;28;20313;-72
2024/01/12 04:37:01;;;;;;;36.80;10.93;;;;;;;-1.10;100.00;102372.31;5035613;28;20224;-71
2024/01/12 04:39:29;;;;;;;29.67;9.93;;;;;;;-1.09;100.00;102358.34;5032226;28;20898;-72
2024/01/12 04:41:55;;;;;;;30.50;9.50;;;;;;;-1.08;100.00;102352.97;5032953;28;20196;-72
2024/01/12 04:44:22;;;;;;;32.90;10.77;;;;;;;-1.08;100.00;102347.78;5032122;28;20220;-72
2024/01/12 04:46:48;;;;;;;38.63;11.53;;;;;;;-1.07;100.00;102365.69;5032535;28;20571;-72
2024/01/12 04:49:15;;;;;;;36.03;10.50;;;;;;;-1.05;100.00;102362.13;5036585;28;20199;-72
2024/01/12 04:51:41;;;;;;;26.90;9.70;;;;;;;-1.04;100.00;102355.94;5035986;28;20231;-72
2024/01/12 04:54:07;;;;;;;45.70;10.67;;;;;;;-1.04;100.00;102350.75;5035191;28;20219;-72
2024/01/12 04:56:35;;;;;;;31.87;10.43;;;;;;;-1.02;100.00;102359.09;5036210;28;20281;-72
2024/01/12 04:59:01;;;;;;;38.10;10.90;;;;;;;-1.02;100.00;102365.09;5033896;28;20222;-72
2024/01/12 05:01:28;;;;;;;24.43;9.80;;;;;;;-1.02;100.00;102360.69;5030454;28;20207;-72
2024/01/12 05:03:54;;;;;;;33.57;10.47;;;;;;;-1.00;100.00;102355.31;5030764;28;21629;-72
2024/01/12 05:06:20;;;;;;;39.07;8.93;;;;;;;-0.99;100.00;102363.91;5028686;28;20748;-72
2024/01/12 05:08:47;;;;;;;35.93;9.50;;;;;;;-0.99;100.00;102359.47;5027993;28;20219;-72
2024/01/12 05:11:14;;;;;;;42.57;10.97;;;;;;;-0.98;100.00;102358.50;5025917;28;20234;-72
2024/01/12 05:13:41;;;;;;;40.47;9.33;;;;;;;-0.98;100.00;102367.06;5034756;28;20210;-72
2024/01/12 05:16:08;;;;;;;35.23;10.93;;;;;;;-0.97;100.00;102368.66;5036533;28;20574;-72
2024/01/12 05:18:34;;;;;;;35.00;9.77;;;;;;;-0.97;100.00;102358.28;5035734;28;20210;-72
2024/01/12 05:21:00;;;;;;;30.57;9.63;;;;;;;-0.96;100.00;102361.69;5033731;28;20684;-72
2024/01/12 05:23:27;;;;;;;30.10;10.50;;;;;;;-0.93;100.00;102365.66;5036672;28;20203;-72
2024/01/12 05:25:53;;;;;;;44.73;10.90;;;;;;;-0.93;100.00;102376.03;5040349;28;20598;-72
2024/01/12 05:28:19;;;;;;;49.73;11.07;;;;;;;-0.93;100.00;102369.06;5030272;28;20567;-72
2024/01/12 05:30:47;;;;;;;34.37;9.93;;;;;;;-0.92;100.00;102368.81;5032065;28;20207;-72
2024/01/12 05:33:13;;;;;;;32.37;11.10;;;;;;;-0.90;100.00;102365.25;5037190;28;20321;-72
2024/01/12 05:35:40;;;;;;;38.47;10.83;;;;;;;-0.90;100.00;102365.25;5029656;28;20228;-72
2024/01/12 05:38:06;;;;;;;32.67;11.77;;;;;;;-0.90;100.00;102367.84;5035337;28;20207;-72
2024/01/12 05:40:32;;;;;;;42.10;10.50;;;;;;;-0.89;100.00;102365.03;5033962;28;20203;-72
2024/01/12 05:42:59;;;;;;;42.30;10.33;;;;;;;-0.89;100.00;102372.03;5033356;28;20901;-72
2024/01/12 05:45:25;;;;;;;28.20;10.43;;;;;;;-0.89;100.00;102367.63;5032572;28;20227;-72
2024/01/12 05:47:53;;;;;;;37.23;10.67;;;;;;;-0.88;100.00;102380.38;5031347;28;20204;-72
2024/01/12 05:50:20;;;;;;;37.20;9.80;;;;;;;-0.88;100.00;102381.38;5032250;28;20874;-72
2024/01/12 05:52:47;;;;;;;39.47;10.17;;;;;;;-0.88;100.00;102379.56;5030788;28;20227;-72
2024/01/12 05:55:13;;;;;;;37.50;11.43;;;;;;;-0.87;100.00;102391.56;5032769;28;20238;-72
2024/01/12 05:57:39;;;;;;;34.90;11.30;;;;;;;-0.87;100.00;102388.97;5030675;28;20196;-72
2024/01/12 06:00:08;;;;;;;36.77;10.53;;;;;;;-0.87;100.00;102394.16;5030120;28;20204;-72
2024/01/12 06:02:35;;;;;;;33.53;10.63;;;;;;;-0.87;100.00;102386.38;5034586;28;20208;-72
2024/01/12 06:05:02;;;;;;;44.50;11.67;;;;;;;-0.86;100.00;102391.34;5030517;28;20658;-72
2024/01/12 06:07:29;;;;;;;36.43;11.20;;;;;;;-0.85;100.00;102392.16;5030312;28;20204;-72
2024/01/12 06:09:55;;;;;;;34.93;10.07;;;;;;;-0.86;100.00;102396.53;5033770;28;20203;-72
2024/01/12 06:12:21;;;;;;;38.50;10.80;;;;;;;-0.84;100.00;102400.72;5030887;28;20698;-72
2024/01/12 06:14:48;;;;;;;26.20;9.33;;;;;;;-0.84;100.00;102408.50;5036530;28;20223;-72
2024/01/12 06:17:15;;;;;;;33.57;10.17;;;;;;;-0.84;100.00;102401.50;5033610;28;20215;-72
2024/01/12 06:19:41;;;;;;;30.33;10.83;;;;;;;-0.84;100.00;102400.72;5035340;28;20231;-72
2024/01/12 06:22:09;;;;;;;26.17;8.90;;;;;;;-0.83;100.00;102397.13;5029603;28;20301;-72
2024/01/12 06:24:36;;;;;;;29.90;8.40;;;;;;;-0.83;100.00;102403.09;5034057;28;20216;-72
2024/01/12 06:27:02;;;;;;;26.07;8.50;;;;;;;-0.82;100.00;102406.50;5035218;28;20700;-72
2024/01/12 06:29:28;;;;;;;29.83;9.30;;;;;;;-0.82;100.00;102406.50;5033631;28;20508;-72
2024/01/12 06:31:55;;;;;;;29.47;9.17;;;;;;;-0.81;100.00;102404.47;5033659;28;20219;-72
2024/01/12 06:34:21;;;;;;;34.17;9.10;;;;;;;-0.77;100.00;102399.69;5034813;28;20238;-72
2024/01/12 06:36:47;;;;;;;26.50;9.87;;;;;;;-0.77;100.00;102394.50;5040920;28;20200;-72
2024/01/12 06:39:16;;;;;;;26.83;8.23;;;;;;;-0.77;100.00;102392.69;5032940;28;20938;-72
2024/01/12 06:41:43;;;;;;;38.13;9.00;;;;;;;-0.76;100.00;102393.50;5038564;28;20199;-72
2024/01/12 06:44:09;;;;;;;37.07;8.93;;;;;;;-0.76;100.00;102393.50;5036701;28;20226;-72
2024/01/12 06:46:36;;;;;;;27.30;8.83;;;;;;;-0.74;100.00;102391.50;5037238;28;20276;-73
2024/01/12 06:49:02;;;;;;;29.47;8.30;;;;;;;-0.73;100.00;102393.88;5036362;28;20208;-72
2024/01/12 06:51:28;;;;;;;32.03;9.93;;;;;;;-0.73;100.00;102396.47;5035658;28;20207;-72
2024/01/12 06:53:54;;;;;;;27.80;8.93;;;;;;;-0.72;100.00;102397.28;5036003;28;20251;-73
2024/01/12 06:56:22;;;;;;;24.87;7.83;;;;;;;-0.72;100.00;102402.47;5040350;28;20199;-72
2024/01/12 06:58:48;;;;;;;27.47;9.10;;;;;;;-0.71;100.00;102404.06;5039352;28;20210;-72
2024/01/12 07:01:17;;;;;;;28.93;9.00;;;;;;;-0.71;100.00;102407.44;5038534;28;20431;-72
2024/01/12 07:03:44;;;;;;;28.43;7.40;;;;;;;-0.71;100.00;102404.84;5036631;28;20526;-73
2024/01/12 07:06:10;;;;;;;25.90;8.40;;;;;;;-0.69;100.00;102409.03;5036554;28;20207;-73
2024/01/12 07:08:36;;;;;;;24.43;8.17;;;;;;;-0.68;100.00;102406.22;5034023;28;20200;-72
2024/01/12 07:11:04;;;;;;;25.47;9.70;;;;;;;-0.68;100.00;102405.44;5035506;28;20204;-72
2024/01/12 07:13:31;;;;;;;32.30;9.37;;;;;;;-0.68;100.00;102409.63;5035799;28;20218;-72
2024/01/12 07:15:58;;;;;;;34.33;9.47;;;;;;;-0.68;100.00;102407.03;5039629;28;20669;-72
2024/01/12 07:18:24;;;;;;;29.83;9.30;;;;;;;-0.66;100.00;102409.41;5041172;28;20239;-72
2024/01/12 07:20:49;;;;;;;25.77;8.60;;;;;;;-0.66;100.00;102394.63;5037641;28;20208;-72
2024/01/12 07:23:16;;;;;;;30.43;9.97;;;;;;;-0.63;100.00;102403.03;5036939;28;20202;-72
2024/01/12 07:25:42;;;;;;;34.93;9.90;;;;;;;-0.63;100.00;102390.06;5035490;28;20238;-73
2024/01/12 07:28:08;;;;;;;29.43;8.70;;;;;;;-0.63;100.00;102388.25;5039328;28;20207;-72
2024/01/12 07:30:36;;;;;;;29.10;9.27;;;;;;;-0.63;100.00;102387.47;5038323;28;20203;-72
2024/01/12 07:33:03;;;;;;;28.90;8.73;;;;;;;-0.62;100.00;102389.84;5032286;28;20917;-73
2024/01/12 07:35:29;;;;;;;27.77;9.33;;;;;;;-0.62;100.00;102389.84;5035551;28;20594;-72
2024/01/12 07:37:55;;;;;;;26.43;9.53;;;;;;;-0.61;100.00;102400.00;5037086;28;20214;-72
2024/01/12 07:40:22;;;;;;;23.40;8.67;;;;;;;-0.62;100.00;102388.03;5035327;28;20300;-72
2024/01/12 07:42:48;;;;;;;18.20;8.03;;;;;;;-0.61;100.00;102381.06;5035662;28;20274;-72
2024/01/12 07:45:15;;;;;;;27.10;8.40;;;;;;;-0.61;100.00;102383.66;5037154;28;20223;-74
2024/01/12 07:47:42;;;;;;;18.47;7.47;;;;;;;-0.60;100.00;102380.06;5033064;28;20201;-74
2024/01/12 07:50:09;;;;;;;21.80;7.50;;;;;;;-0.59;100.00;102386.81;5037680;28;20212;-73
2024/01/12 07:52:36;;;;;;;19.80;7.13;;;;;;;-0.60;100.00;102393.81;5032509;28;20674;-73
2024/01/12 07:55:02;;;;;;;20.90;7.17;;;;;;;-0.59;100.00;102389.41;5038323;28;20704;-73
2024/01/12 07:57:29;;;;;;;20.90;7.20;;;;;;;-0.59;100.00;102394.59;5035511;28;20199;-73
2024/01/12 07:59:56;;;;;;;21.57;7.50;;;;;;;-0.60;100.00;102378.25;5032413;28;20196;-73
2024/01/12 08:02:23;;;;;;;24.57;7.57;;;;;;;-0.58;100.00;102385.81;5037123;28;20540;-74
2024/01/12 08:04:51;;;;;;;24.20;9.03;;;;;;;-0.58;100.00;102391.00;5034181;28;20219;-73
2024/01/12 08:07:17;;;;;;;22.60;7.93;;;;;;;-0.58;100.00;102393.59;5032549;28;20208;-74
2024/01/12 08:09:43;;;;;;;19.87;7.67;;;;;;;-0.58;100.00;102398.78;5035732;28;20191;-73
2024/01/12 08:12:10;;;;;;;18.70;7.50;;;;;;;-0.57;100.00;102398.59;5032801;28;20218;-73
2024/01/12 08:14:36;;;;;;;18.73;7.63;;;;;;;-0.56;100.00;102399.41;5034643;28;20224;-73
2024/01/12 08:17:03;;;;;;;22.47;8.27;;;;;;;-0.55;100.00;102396.56;5035411;28;20242;-73
2024/01/12 08:19:29;;;;;;;30.67;14.97;;;;;;;-0.53;100.00;102396.38;5038855;28;20264;-73
2024/01/12 08:21:57;;;;;;;28.03;13.60;;;;;;;-0.52;100.00;102395.34;5039146;28;20691;-73
2024/01/12 08:24:23;;;;;;;22.53;9.20;;;;;;;-0.51;100.00;102397.75;5044442;28;20629;-74
2024/01/12 08:26:49;;;;;;;20.57;11.57;;;;;;;-0.49;100.00;102384.59;5038518;28;20195;-73
2024/01/12 08:29:16;;;;;;;25.07;12.93;;;;;;;-0.48;100.00;102391.34;5040304;28;20201;-74
2024/01/12 08:31:42;;;;;;;25.50;10.27;;;;;;;-0.47;100.00;102383.38;5037413;28;20830;-75
2024/01/12 08:34:09;;;;;;;27.30;9.20;;;;;;;-0.45;100.00;102385.75;5040333;28;20224;-74
2024/01/12 08:36:35;;;;;;;20.90;8.17;;;;;;;-0.42;100.00;102390.50;5043073;28;20218;-73
2024/01/12 08:39:04;;;;;;;20.50;8.20;;;;;;;-0.41;100.00;102403.28;5041674;28;20211;-73
2024/01/12 08:41:31;;;;;;;26.80;12.53;;;;;;;-0.40;100.00;102391.91;5040144;28;20910;-73
2024/01/12 08:43:57;;;;;;;21.80;9.93;;;;;;;-0.37;100.00;102380.31;5036982;28;20215;-74
2024/01/12 08:46:26;;;;;;;26.40;11.87;;;;;;;-0.36;100.00;102374.13;5039157;28;20204;-73
2024/01/12 08:48:54;;;;;;;21.13;9.93;;;;;;;-0.35;100.00;102375.72;5043894;28;20269;-73
2024/01/12 08:51:23;;;;;;;18.73;9.63;;;;;;;-0.32;100.00;102380.47;5040330;28;20253;-73
2024/01/12 08:53:49;;;;;;;20.80;11.13;;;;;;;-0.32;100.00;102377.09;5043697;28;20223;-73
2024/01/12 08:56:17;;;;;;;14.57;8.23;;;;;;;-0.30;100.00;102375.88;5040289;28;20477;-74
2024/01/12 08:58:43;;;;;;;19.30;9.40;;;;;;;-0.28;100.00;102368.66;5035801;28;20577;-73
2024/01/12 09:01:10;;;;;;;21.37;9.47;;;;;;;-0.26;100.00;102372.66;5037705;28;20674;-73
2024/01/12 09:03:36;;;;;;;14.97;7.20;;;;;;;-0.25;100.00;102374.22;5035311;28;20200;-73
2024/01/12 09:06:03;;;;;;;14.40;7.10;;;;;;;-0.24;100.00;102385.41;5037997;28;20206;-75
2024/01/12 09:08:29;;;;;;;17.00;7.03;;;;;;;-0.24;100.00;102388.78;5042203;28;20203;-73
2024/01/12 09:10:55;;;;;;;12.53;6.87;;;;;;;-0.22;100.00;102391.19;5042169;28;20199;-73
2024/01/12 09:13:23;;;;;;;13.60;6.40;;;;;;;-0.22;100.00;102389.41;5037046;28;20211;-73
2024/01/12 09:15:49;;;;;;;16.13;7.23;;;;;;;-0.20;100.00;102389.19;5037579;28;20223;-74
2024/01/12 09:18:16;;;;;;;23.37;13.13;;;;;;;-0.20;100.00;102386.59;5035727;28;20196;-74
2024/01/12 09:20:42;;;;;;;34.57;18.93;;;;;;;-0.17;100.00;102390.56;5037658;28;20207;-73
2024/01/12 09:23:08;;;;;;;13.73;6.70;;;;;;;-0.17;100.00;102399.94;5040641;28;20219;-73
2024/01/12 09:25:35;;;;;;;16.00;6.60;;;;;;;-0.15;100.00;102399.75;5037301;28;20620;-73
2024/01/12 09:28:01;;;;;;;18.20;8.83;;;;;;;-0.13;100.00;102397.72;5038845;28;20199;-73
2024/01/12 09:30:29;;;;;;;14.57;6.93;;;;;;;-0.11;100.00;102390.50;5043166;28;20565;-73
2024/01/12 09:32:55;;;;;;;13.50;6.60;;;;;;;-0.09;100.00;102381.50;5036368;28;20219;-73
2024/01/12 09:35:21;;;;;;;16.00;7.73;;;;;;;-0.08;100.00;102388.31;5039940;28;20230;-73
2024/01/12 09:37:48;;;;;;;24.87;11.43;;;;;;;-0.05;100.00;102381.91;5035230;28;20196;-73
2024/01/12 09:40:14;;;;;;;38.67;19.13;;;;;;;-0.05;100.00;102377.47;5039838;28;20325;-73
2024/01/12 09:42:43;;;;;;;133.40;51.43;;;;;;;-0.01;100.00;102380.44;5040057;28;20701;-73
2024/01/12 09:45:13;;;;;;;52.47;23.07;;;;;;;0.00;100.00;102375.03;5038486;28;20223;-74
2024/01/12 09:47:41;;;;;;;30.43;15.93;;;;;;;0.02;100.00;102385.22;5040708;28;20211;-73
2024/01/12 09:50:10;;;;;;;30.83;13.90;;;;;;;0.04;100.00;102386.59;5038064;28;20223;-74
2024/01/12 09:52:37;;;;;;;24.17;12.10;;;;;;;0.06;100.00;102389.78;5036847;28;20769;-73
2024/01/12 09:55:04;;;;;;;20.83;12.83;;;;;;;0.08;100.00;102382.59;5038796;28;20226;-74
2024/01/12 09:57:32;;;;;;;18.90;8.77;;;;;;;0.08;100.00;102377.38;5036921;28;20575;-74
2024/01/12 09:59:59;;;;;;;20.87;9.60;;;;;;;0.09;100.00;102373.78;5033351;28;20200;-73
2024/01/12 10:02:25;;;;;;;28.23;10.40;;;;;;;0.12;100.00;102378.53;5035805;28;20675;-73
2024/01/12 10:04:54;;;;;;;32.10;15.10;;;;;;;0.13;100.00;102372.34;5037371;28;20220;-73
2024/01/12 10:07:20;;;;;;;28.93;14.90;;;;;;;0.15;100.00;102354.75;5036261;28;20682;-73
2024/01/12 10:09:47;;;;;;;23.97;9.33;;;;;;;0.15;100.00;102349.56;5039207;28;20195;-74
2024/01/12 10:12:14;;;;;;;19.50;9.80;;;;;;;0.16;100.00;102342.56;5036004;28;20192;-74
2024/01/12 10:14:40;;;;;;;26.10;9.93;;;;;;;0.19;100.00;102344.72;5035840;28;20235;-74
2024/01/12 10:17:06;;;;;;;21.57;8.90;;;;;;;0.18;100.00;102332.75;5036375;28;20203;-74
2024/01/12 10:19:33;;;;;;;22.93;8.30;;;;;;;0.21;100.00;102333.09;5036308;28;20199;-74
2024/01/12 10:22:01;;;;;;;19.87;8.27;;;;;;;0.23;100.00;102330.31;5040753;28;20207;-74
2024/01/12 10:24:30;;;;;;;13.97;6.50;;;;;;;0.24;100.00;102324.09;5032800;28;20224;-73
2024/01/12 10:27:01;;;;;;;17.33;7.23;;;;;;;0.24;100.00;102327.50;5034850;28;20254;-73
2024/01/12 10:29:27;;;;;;;13.30;6.10;;;;;;;0.25;100.00;102318.69;5040867;28;20225;-74
2024/01/12 10:31:54;;;;;;;15.37;7.30;;;;;;;0.24;100.00;102330.09;5035936;28;20203;-74
2024/01/12 10:34:21;;;;;;;13.20;6.10;;;;;;;0.25;100.00;102321.28;5033296;28;20274;-73
2024/01/12 10:36:57;;;;;;;15.03;6.83;;;;;;;0.26;100.00;102315.06;5038224;28;20203;-73
2024/01/12 10:39:27;;;;;;;14.20;6.97;;;;;;;0.26;100.00;102317.66;5033503;28;20219;-73
2024/01/12 10:42:00;;;;;;;13.60;6.33;;;;;;;0.29;100.00;102316.44;5033854;28;21693;-73
2024/01/12 10:44:28;;;;;;;13.23;5.73;;;;;;;0.31;100.00;102314.41;5035401;28;20231;-72
2024/01/12 10:47:02;;;;;;;16.80;7.23;;;;;;;0.34;100.00;102319.19;5037793;28;20795;-74
2024/01/12 10:49:34;;;;;;;13.77;6.13;;;;;;;0.40;100.00;102315.72;5038246;28;20199;-75
2024/01/12 10:52:07;;;;;;;12.50;6.80;;;;;;;0.44;100.00;102317.69;5033470;28;20215;-73
2024/01/12 10:54:46;;;;;;;19.50;9.83;;;;;;;0.50;100.00;102316.84;5033089;28;20591;-73
2024/01/12 10:57:13;;;;;;;20.00;7.93;;;;;;;0.56;100.00;102309.94;5032531;28;20594;-74
2024/01/12 10:59:40;;;;;;;15.20;6.67;;;;;;;0.59;100.00;102302.53;5035989;28;20214;-73
2024/01/12 11:02:10;;;;;;;11.20;5.90;;;;;;;0.61;100.00;102300.50;5033389;28;20662;-73
2024/01/12 11:04:37;;;;;;;11.73;5.37;;;;;;;0.61;100.00;102299.69;5031380;28;20234;-73